Time;durP1;ratioP1;P1;durP2;ratioP2;P2;SDS_P1;SDS_P2;PMS_P1;PMS_P2;Temp;Humidity;BMP_temperature;BMP_pressure;BME280_temperature;BME280_humidity;BME280_pressure;Samples;Min_cycle;Max_cycle;Signal;HPM_P1;HPM_P2
2021/04/01 00:01:26;;;;;;;74.40;38.00;;;;;;;7.84;78.40;101457.91;5093534;28;20040;-78
2021/04/01 00:03:52;;;;;;;72.03;40.17;;;;;;;7.86;78.34;101449.81;5092377;28;20028;-78
2021/04/01 00:06:17;;;;;;;66.95;36.75;;;;;;;7.88;78.85;101462.00;5093161;28;20054;-78
2021/04/01 00:08:42;;;;;;;71.60;38.33;;;;;;;8.00;79.24;101468.09;5092855;28;20116;-77
2021/04/01 00:11:09;;;;;;;70.30;39.00;;;;;;;8.15;79.78;101455.38;5093265;28;20043;-78
2021/04/01 00:13:35;;;;;;;72.70;39.13;;;;;;;8.16;79.88;101455.22;5093116;28;20085;-78
2021/04/01 00:16:00;;;;;;;75.23;39.73;;;;;;;8.18;80.22;101463.06;5093071;28;20028;-78
2021/04/01 00:18:26;;;;;;;73.60;37.93;;;;;;;8.12;80.13;101458.25;5092637;28;20043;-78
2021/04/01 00:20:52;;;;;;;77.05;40.45;;;;;;;8.12;80.62;101460.91;5092789;28;20032;-78
2021/04/01 00:23:17;;;;;;;75.90;40.30;;;;;;;8.10;80.80;101452.22;5092994;28;20346;-78
2021/04/01 00:25:42;;;;;;;69.40;35.53;;;;;;;8.16;80.71;101457.03;5090981;28;20490;-78
2021/04/01 00:28:08;;;;;;;76.50;37.27;;;;;;;8.34;79.91;101468.78;5091651;28;20040;-77
2021/04/01 00:30:34;;;;;;;73.57;38.40;;;;;;;8.29;79.84;101463.00;5074958;28;20052;-78
2021/04/01 00:32:59;;;;;;;77.33;36.10;;;;;;;8.19;80.17;101464.75;5092726;28;20032;-77
2021/04/01 00:35:24;;;;;;;79.43;40.87;;;;;;;8.14;80.29;101466.97;5092645;28;20633;-78
2021/04/01 00:37:50;;;;;;;83.63;41.30;;;;;;;7.97;81.02;101452.41;5091456;28;20070;-78
2021/04/01 00:40:16;;;;;;;83.77;42.00;;;;;;;7.96;81.85;101451.59;5092581;28;20112;-78
2021/04/01 00:42:41;;;;;;;;;;;;;;;8.00;82.15;101447.66;5092019;28;20036;-77
2021/04/01 00:45:11;;;;;;;;;;;;;;;7.97;81.96;101442.63;5091901;28;20003;-78
2021/04/01 00:47:47;;;;;;;82.85;41.08;;;;;;;8.04;81.73;101454.44;5091211;28;19918;-77
2021/04/01 00:50:16;;;;;;;82.32;37.25;;;;;;;8.13;81.41;101447.50;5092418;28;20036;-77
2021/04/01 00:52:41;;;;;;;74.38;40.83;;;;;;;8.32;80.62;101448.59;5092392;28;20040;-78
2021/04/01 00:55:08;;;;;;;71.57;36.20;;;;;;;8.37;80.75;101449.88;5074407;28;20046;-78
2021/04/01 00:57:36;;;;;;;66.97;36.42;;;;;;;8.52;80.31;101452.25;5091005;28;20032;-78
2021/04/01 01:00:02;;;;;;;77.13;40.58;;;;;;;8.50;80.14;101449.72;5091197;28;20130;-78
2021/04/01 01:02:27;;;;;;;69.88;39.30;;;;;;;8.49;80.85;101434.72;5092216;28;20046;-78
2021/04/01 01:04:54;;;;;;;74.73;41.13;;;;;;;8.47;80.89;101433.16;5091174;28;20130;-77
2021/04/01 01:07:19;;;;;;;90.50;44.83;;;;;;;8.41;81.10;101430.06;5090985;28;20035;-78
2021/04/01 01:09:45;;;;;;;78.55;41.60;;;;;;;8.35;81.41;101419.91;5090909;28;20373;-78
2021/04/01 01:12:10;;;;;;;80.00;38.53;;;;;;;8.33;81.55;101427.16;5091094;28;20040;-78
2021/04/01 01:14:36;;;;;;;74.87;39.63;;;;;;;8.32;81.59;101425.50;5091881;28;20100;-78
2021/04/01 01:17:03;;;;;;;80.57;39.92;;;;;;;8.28;81.35;101434.72;5091922;28;20052;-78
2021/04/01 01:19:38;;;;;;;82.60;40.60;;;;;;;8.30;80.95;101434.59;5090729;28;20457;-78
2021/04/01 01:22:05;;;;;;;85.40;41.63;;;;;;;8.34;81.23;101426.22;5091983;28;20128;-78
2021/04/01 01:24:31;;;;;;;80.18;42.08;;;;;;;8.37;80.75;101436.59;5091086;28;20364;-78
2021/04/01 01:26:57;;;;;;;73.35;39.90;;;;;;;8.47;80.67;101433.16;5090920;28;20020;-78
2021/04/01 01:29:23;;;;;;;74.68;37.70;;;;;;;8.59;79.68;101434.75;5090605;28;20043;-77
2021/04/01 01:31:50;;;;;;;78.22;41.17;;;;;;;8.51;80.24;101431.94;5090798;28;20441;-78
2021/04/01 01:34:16;;;;;;;74.82;39.28;;;;;;;8.43;80.92;101417.47;5090624;28;20043;-78
2021/04/01 01:36:42;;;;;;;74.68;37.75;;;;;;;8.42;81.03;101414.94;5091365;28;20139;-78
2021/04/01 01:39:07;;;;;;;78.35;42.50;;;;;;;8.41;80.94;101408.78;5091367;28;20127;-78
2021/04/01 01:41:33;;;;;;;75.40;40.33;;;;;;;8.40;80.71;101407.06;5091665;28;20115;-78
2021/04/01 01:44:00;;;;;;;79.10;42.17;;;;;;;8.33;81.07;101408.53;5091666;28;20043;-79
2021/04/01 01:46:25;;;;;;;73.43;41.75;;;;;;;8.27;80.83;101411.75;5090583;28;20032;-78
2021/04/01 01:48:51;;;;;;;86.75;42.45;;;;;;;8.21;81.28;101414.91;5091558;28;20625;-78
2021/04/01 01:51:17;;;;;;;80.73;43.00;;;;;;;8.22;80.42;101413.97;5073966;28;20046;-78
2021/04/01 01:53:42;;;;;;;78.43;42.87;;;;;;;8.26;80.29;101415.38;5091697;28;20072;-78
2021/04/01 01:56:08;;;;;;;73.60;37.00;;;;;;;8.32;79.93;101414.84;5090766;28;20035;-78
2021/04/01 01:58:34;;;;;;;71.43;38.97;;;;;;;8.34;80.04;101418.22;5090686;28;20526;-78
2021/04/01 02:01:00;;;;;;;72.93;36.90;;;;;;;8.38;80.27;101422.31;5091124;28;20040;-78
2021/04/01 02:03:26;;;;;;;75.68;40.70;;;;;;;8.38;80.09;101406.34;5076310;28;20067;-78
2021/04/01 02:05:52;;;;;;;75.57;42.13;;;;;;;8.37;79.65;101402.00;5093965;28;20445;-79
2021/04/01 02:08:18;;;;;;;73.40;39.40;;;;;;;8.42;79.08;101397.16;5093099;28;20051;-78
2021/04/01 02:10:49;;;;;;;75.00;40.88;;;;;;;8.51;79.02;101389.34;5092501;28;20035;-78
2021/04/01 02:13:18;;;;;;;70.43;40.05;;;;;;;8.51;79.01;101381.38;5091041;28;20050;-78
2021/04/01 02:15:45;;;;;;;75.15;37.28;;;;;;;8.47;79.71;101379.94;5074227;28;20085;-78
2021/04/01 02:18:12;;;;;;;81.78;41.83;;;;;;;8.40;79.40;101380.47;5091756;28;20032;-79
2021/04/01 02:20:44;;;;;;;74.32;39.08;;;;;;;8.45;79.40;101396.03;5091906;28;20036;-79
2021/04/01 02:23:18;;;;;;;77.00;38.15;;;;;;;8.42;78.86;101389.16;5090658;28;20039;-78
2021/04/01 02:25:45;;;;;;;77.32;37.63;;;;;;;8.49;78.74;101399.28;5091086;28;20139;-79
2021/04/01 02:28:12;;;;;;;76.43;42.38;;;;;;;8.49;78.79;101388.63;5091034;28;20036;-78
2021/04/01 02:30:39;;;;;;;77.32;40.13;;;;;;;8.22;79.47;101371.41;5073505;28;20122;-79
2021/04/01 02:33:05;;;;;;;74.82;39.05;;;;;;;8.28;79.89;101381.50;5091200;28;20036;-77
2021/04/01 02:35:31;;;;;;;80.43;40.58;;;;;;;8.40;79.65;101388.44;5091525;28;20024;-79
2021/04/01 02:37:56;;;;;;;68.50;34.65;;;;;;;8.50;78.88;101385.00;5091095;28;20107;-79
2021/04/01 02:40:22;;;;;;;77.90;40.83;;;;;;;8.49;78.70;101388.63;5090077;28;20724;-78
2021/04/01 02:42:48;;;;;;;76.65;39.70;;;;;;;8.47;78.99;101391.44;5091146;28;20042;-78
2021/04/01 02:45:13;;;;;;;71.03;35.37;;;;;;;8.35;79.52;101387.97;5090056;28;20040;-78
2021/04/01 02:47:39;;;;;;;83.40;38.60;;;;;;;8.37;79.65;101391.34;5089793;28;20036;-78
2021/04/01 02:50:06;;;;;;;76.60;39.83;;;;;;;8.32;79.85;101382.94;5093171;28;20060;-78
2021/04/01 02:52:36;;;;;;;72.78;37.28;;;;;;;8.38;79.60;101397.50;5094779;28;20032;-77
2021/04/01 02:55:03;;;;;;;73.53;38.03;;;;;;;8.39;79.90;101397.38;5093712;28;20036;-78
2021/04/01 02:57:28;;;;;;;77.72;39.08;;;;;;;8.37;80.10;101409.97;5093411;28;20028;-78
2021/04/01 02:59:54;;;;;;;75.07;38.40;;;;;;;8.17;80.27;101416.16;5094598;28;20051;-77
2021/04/01 03:02:20;;;;;;;74.22;38.55;;;;;;;8.08;78.16;101393.00;5093542;28;20024;-77
2021/04/01 03:04:47;;;;;;;72.55;37.15;;;;;;;8.19;76.77;101392.94;5094584;28;20338;-78
2021/04/01 03:07:12;;;;;;;73.03;37.53;;;;;;;8.27;75.41;101393.13;5094506;28;20137;-78
2021/04/01 03:09:38;;;;;;;74.53;36.60;;;;;;;8.36;75.84;101402.16;5093157;28;20475;-77
2021/04/01 03:12:04;;;;;;;74.10;37.40;;;;;;;8.34;76.86;101412.06;5094346;28;20025;-78
2021/04/01 03:14:29;;;;;;;77.80;38.05;;;;;;;8.19;77.23;101414.22;5094377;28;20023;-78
2021/04/01 03:16:55;;;;;;;78.57;35.40;;;;;;;8.17;76.84;101398.41;5094308;28;20357;-78
2021/04/01 03:19:20;;;;;;;78.23;39.37;;;;;;;8.23;76.48;101397.84;5094213;28;20031;-77
2021/04/01 03:21:46;;;;;;;74.30;38.17;;;;;;;8.31;75.85;101402.53;5094294;28;20036;-78
2021/04/01 03:24:13;;;;;;;75.00;37.60;;;;;;;8.34;75.90;101402.25;5094158;28;20035;-78
2021/04/01 03:26:39;;;;;;;71.95;37.33;;;;;;;8.38;75.80;101408.16;5094046;28;20123;-78
2021/04/01 03:29:04;;;;;;;71.72;38.28;;;;;;;8.33;75.74;101403.22;5092929;28;20256;-77
2021/04/01 03:31:30;;;;;;;71.07;37.40;;;;;;;8.30;75.08;101400.00;5093162;28;20055;-78
2021/04/01 03:33:55;;;;;;;74.90;37.90;;;;;;;8.36;75.25;101395.00;5094116;28;20035;-78
2021/04/01 03:36:20;;;;;;;73.13;37.47;;;;;;;8.40;75.79;101387.63;5093949;28;20043;-77
2021/04/01 03:38:47;;;;;;;75.20;39.67;;;;;;;8.42;75.68;101393.66;5093635;28;20032;-77
2021/04/01 03:41:13;;;;;;;72.38;37.92;;;;;;;8.43;74.74;101411.31;5093768;28;20036;-78
2021/04/01 03:43:38;;;;;;;79.93;42.38;;;;;;;8.37;74.27;101395.84;5092993;28;20472;-78
2021/04/01 03:46:04;;;;;;;80.22;38.30;;;;;;;8.37;74.32;101391.34;5075603;28;20055;-79
2021/04/01 03:48:30;;;;;;;78.65;39.92;;;;;;;8.35;75.70;101390.63;5093447;28;20089;-78
2021/04/01 03:50:56;;;;;;;75.50;39.50;;;;;;;8.35;74.51;101392.47;5092744;28;20036;-77
2021/04/01 03:53:21;;;;;;;77.50;39.47;;;;;;;8.31;73.53;101396.34;5092509;28;20035;-78
2021/04/01 03:55:47;;;;;;;77.70;36.03;;;;;;;8.31;73.62;101391.91;5092540;28;20400;-78
2021/04/01 04:06:08;;;;;;;82.72;38.60;;;;;;;8.44;74.93;101408.50;5093195;28;20032;-78
2021/04/01 04:11:31;;;;;;;75.45;37.45;;;;;;;8.31;75.00;101399.88;5093260;28;20047;-78
2021/04/01 04:14:22;;;;;;;76.50;35.13;;;;;;;8.28;74.46;101397.47;5075449;28;20038;-78
2021/04/01 04:16:45;;;;;;;83.38;37.10;;;;;;;8.28;74.04;101401.94;5093001;28;20032;-78
2021/04/01 04:19:10;;;;;;;73.00;36.80;;;;;;;8.21;74.30;101405.13;5092856;28;20051;-79
2021/04/01 04:21:36;;;;;;;75.10;36.73;;;;;;;8.16;73.34;101409.16;5091941;28;20785;-78
2021/04/01 04:24:04;;;;;;;78.30;39.13;;;;;;;8.10;73.07;101410.53;5091936;28;20079;-78
2021/04/01 04:26:29;;;;;;;70.68;36.92;;;;;;;8.06;72.24;101413.59;5074879;28;20032;-78
2021/04/01 04:28:55;;;;;;;86.27;39.30;;;;;;;8.01;72.48;101412.16;5092537;28;20067;-78
2021/04/01 04:31:20;;;;;;;83.03;42.83;;;;;;;8.01;73.07;101408.66;5092755;28;20032;-78
2021/04/01 04:33:45;;;;;;;79.43;37.43;;;;;;;8.02;73.39;101402.34;5092837;28;20044;-78
2021/04/01 04:36:11;;;;;;;82.73;39.13;;;;;;;8.02;73.36;101397.88;5091721;28;20028;-78
2021/04/01 04:38:36;;;;;;;76.40;38.97;;;;;;;8.01;72.88;101403.34;5092806;28;20040;-78
2021/04/01 04:41:02;;;;;;;81.60;37.23;;;;;;;7.99;73.05;101392.81;5092668;28;20040;-78
2021/04/01 04:43:29;;;;;;;75.00;36.33;;;;;;;8.00;72.75;101401.63;5091643;28;20043;-79
2021/04/01 04:45:55;;;;;;;79.55;37.97;;;;;;;7.94;72.88;101399.50;5074514;28;20039;-79
2021/04/01 04:48:21;;;;;;;80.95;38.22;;;;;;;7.88;73.30;101390.22;5091286;28;20024;-78
2021/04/01 04:50:47;;;;;;;77.10;36.70;;;;;;;7.86;74.20;101383.34;5091578;28;20706;-79
2021/04/01 04:53:14;;;;;;;78.15;39.80;;;;;;;7.83;74.03;101381.78;5092523;28;20040;-78
2021/04/01 04:55:40;;;;;;;79.43;38.47;;;;;;;7.76;72.34;101378.81;5091312;28;20066;-77
2021/04/01 04:58:17;;;;;;;83.05;38.20;;;;;;;7.76;71.85;101376.13;5091921;28;20048;-79
2021/04/01 05:06:07;;;;;;;79.78;38.00;;;;;;;7.72;71.83;101373.88;5092203;28;20051;-78
2021/04/01 05:08:32;;;;;;;73.40;39.13;;;;;;;7.71;72.49;101380.16;5090941;28;20035;-78
2021/04/01 05:10:58;;;;;;;78.28;37.95;;;;;;;7.72;72.52;101380.00;5091077;28;20047;-77
2021/04/01 05:13:23;;;;;;;71.70;37.47;;;;;;;7.81;70.68;101383.72;5091562;28;20046;-77
2021/04/01 05:15:50;;;;;;;82.40;38.67;;;;;;;8.13;67.21;101380.16;5092057;28;20078;-78
2021/04/01 05:18:30;;;;;;;92.63;42.75;;;;;;;8.20;65.94;101389.31;5090861;28;20028;-78
2021/04/01 05:20:57;;;;;;;90.43;38.67;;;;;;;8.32;66.17;101393.56;5091870;28;20036;-77
2021/04/01 05:23:28;;;;;;;90.82;40.05;;;;;;;8.42;65.49;101389.16;5091965;28;20589;-78
2021/04/01 05:26:12;;;;;;;89.00;42.10;;;;;;;8.52;65.51;101399.00;5090810;28;20100;-78
2021/04/01 05:28:37;;;;;;;93.05;40.03;;;;;;;8.53;65.59;101392.72;5090639;28;20502;-78
2021/04/01 05:31:04;;;;;;;92.28;41.58;;;;;;;8.55;65.93;101396.94;5090858;28;20044;-78
2021/04/01 05:33:33;;;;;;;92.20;40.53;;;;;;;8.54;66.14;101397.06;5090538;28;20036;-78
2021/04/01 05:36:01;;;;;;;99.28;44.45;;;;;;;8.50;66.45;101390.31;5090637;28;20036;-79
2021/04/01 05:38:27;;;;;;;92.95;43.22;;;;;;;8.47;65.74;101393.25;5091209;28;20074;-79
2021/04/01 05:40:52;;;;;;;97.75;43.05;;;;;;;8.54;66.53;101392.56;5090520;28;20028;-79
2021/04/01 05:43:22;;;;;;;95.93;41.50;;;;;;;8.53;66.89;101398.06;5091473;28;20105;-79
2021/04/01 05:45:58;;;;;;;90.70;40.20;;;;;;;8.50;67.45;101393.84;5090353;28;20196;-79
2021/04/01 05:48:30;;;;;;;;;;;;;;;8.43;67.86;101400.69;5073825;28;20028;-79
2021/04/01 05:51:21;;;;;;;95.43;43.95;;;;;;;8.39;68.09;101401.88;5091525;28;19912;-79
2021/04/01 06:01:44;;;;;;;85.80;39.13;;;;;;;8.59;69.56;101401.03;5090386;28;20032;-79
2021/04/01 06:04:40;;;;;;;76.95;36.47;;;;;;;8.56;70.63;101389.78;5090551;28;20090;-79
2021/04/01 06:07:16;;;;;;;81.10;37.35;;;;;;;8.51;71.40;101387.53;5090796;28;20055;-79
2021/04/01 06:09:50;;;;;;;78.13;35.90;;;;;;;8.54;71.70;101389.06;5091084;28;20121;-79
2021/04/01 06:12:16;;;;;;;74.53;35.13;;;;;;;8.57;71.64;101392.31;5073341;28;20051;-80
2021/04/01 06:14:56;;;;;;;80.80;34.70;;;;;;;8.56;71.79;101397.78;5091195;28;20461;-80
2021/04/01 06:17:24;;;;;;;73.45;33.47;;;;;;;8.58;71.79;101403.81;5090205;28;20032;-79
2021/04/01 06:19:53;;;;;;;74.53;34.47;;;;;;;8.59;72.32;101413.47;5090996;28;20115;-80
2021/04/01 06:22:21;;;;;;;72.93;35.67;;;;;;;8.52;72.93;101414.97;5073320;28;20032;-80
2021/04/01 06:24:48;;;;;;;74.78;33.10;;;;;;;8.55;72.89;101412.06;5094678;28;20043;-79
2021/04/01 06:27:23;;;;;;;70.75;33.45;;;;;;;8.56;72.89;101405.75;5094091;28;20044;-79
2021/04/01 06:32:46;;;;;;;70.95;35.20;;;;;;;8.62;72.95;101413.22;5094043;28;20027;-78
2021/04/01 06:35:19;;;;;;;74.07;34.17;;;;;;;8.61;73.25;101415.03;5094233;28;20042;-78
2021/04/01 06:40:42;;;;;;;62.88;28.98;;;;;;;8.60;71.00;101412.50;5094890;28;20063;-78
2021/04/01 06:43:14;;;;;;;67.28;32.15;;;;;;;8.60;71.53;101421.34;5094847;28;20058;-78
2021/04/01 06:45:42;;;;;;;62.95;30.17;;;;;;;8.48;71.28;101425.06;5094770;28;20368;-78
2021/04/01 06:48:12;;;;;;;64.28;31.33;;;;;;;8.50;71.60;101416.94;5094361;28;20096;-79
2021/04/01 06:50:38;;;;;;;62.10;31.33;;;;;;;8.64;70.41;101417.44;5094734;28;20032;-78
2021/04/01 06:53:15;;;;;;;58.38;28.85;;;;;;;8.61;71.12;101408.84;5094390;28;20514;-78
2021/04/01 06:55:47;;;;;;;60.85;30.33;;;;;;;8.68;71.42;101407.34;5092222;28;20047;-78
2021/04/01 07:01:21;;;;;;;60.97;28.63;;;;;;;8.92;70.26;101424.81;5091857;28;20439;-79
2021/04/01 07:03:54;;;;;;;60.45;28.75;;;;;;;8.92;69.94;101451.44;5091872;28;20036;-79
2021/04/01 07:06:22;;;;;;;58.85;27.65;;;;;;;8.80;69.52;101467.53;5091291;28;20076;-78
2021/04/01 07:11:43;;;;;;;53.50;26.00;;;;;;;8.73;70.00;101487.66;5093279;28;20097;-78
2021/04/01 07:14:24;;;;;;;49.13;25.02;;;;;;;8.69;70.44;101464.94;5089598;28;20127;-78
2021/04/01 07:19:29;;;;;;;50.22;25.88;;;;;;;8.40;71.78;101472.75;5093939;28;20119;-79
2021/04/01 07:35:46;;;;;;;43.53;21.60;;;;;;;8.22;74.35;101493.78;5093357;28;20039;-79
2021/04/01 07:46:36;;;;;;;56.65;19.88;;;;;;;8.28;74.26;101501.22;5093745;28;20066;-79
2021/04/01 07:49:09;;;;;;;48.33;19.45;;;;;;;8.20;75.04;101511.66;5093382;28;20040;-78
2021/04/01 07:54:04;;;;;;;46.78;19.33;;;;;;;8.11;75.34;101517.75;5092540;28;20046;-79
2021/04/01 07:56:36;;;;;;;42.53;19.48;;;;;;;7.93;76.50;101515.63;5092529;28;20081;-79
2021/04/01 08:04:19;;;;;;;36.00;16.50;;;;;;;7.68;77.33;101515.94;5093480;28;20594;-80
2021/04/01 08:06:45;;;;;;;41.10;17.23;;;;;;;7.55;77.86;101516.94;5093320;28;20127;-80
2021/04/01 08:09:17;;;;;;;39.33;18.58;;;;;;;7.59;77.86;101526.38;5091845;28;20067;-79
2021/04/01 08:11:48;;;;;;;34.80;16.63;;;;;;;7.55;78.26;101527.59;5092145;28;20066;-78
2021/04/01 08:14:38;;;;;;;36.65;16.85;;;;;;;8.03;77.14;101524.56;5093398;28;20111;-79
2021/04/01 08:17:17;;;;;;;35.83;15.52;;;;;;;7.86;77.79;101526.91;5092466;28;20040;-79
2021/04/01 08:19:47;;;;;;;36.15;16.65;;;;;;;7.89;77.29;101535.50;5075027;28;20054;-79
2021/04/01 08:22:22;;;;;;;35.10;16.83;;;;;;;7.66;77.88;101525.88;5075253;28;20043;-79
2021/04/01 08:24:56;;;;;;;34.83;16.48;;;;;;;7.74;77.91;101534.06;5075161;28;20032;-79
2021/04/01 08:27:53;;;;;;;29.73;16.33;;;;;;;7.60;78.31;101549.31;5092948;28;20033;-79
2021/04/01 08:35:15;;;;;;;31.52;15.05;;;;;;;7.39;79.30;101570.47;5092615;28;20040;-80
2021/04/01 08:37:51;;;;;;;29.52;14.18;;;;;;;7.48;79.65;101558.28;5092523;28;20059;-79
2021/04/01 08:40:17;;;;;;;35.00;13.70;;;;;;;7.42;79.60;101563.22;5091710;28;20043;-80
2021/04/01 08:43:34;;;;;;;30.75;15.10;;;;;;;7.30;80.16;101567.69;5092699;28;20028;-79
2021/04/01 08:46:22;;;;;;;28.23;14.15;;;;;;;7.41;80.09;101565.03;5092470;28;20498;-79
2021/04/01 08:48:50;;;;;;;31.98;12.70;;;;;;;7.55;79.25;101571.91;5093544;28;20074;-79
2021/04/01 08:51:59;;;;;;;30.17;13.30;;;;;;;7.49;79.73;101569.75;5094468;28;20035;-80
2021/04/01 08:54:41;;;;;;;38.67;14.63;;;;;;;7.40;80.44;101592.59;5075235;28;20048;-80
2021/04/01 08:57:19;;;;;;;33.03;14.05;;;;;;;7.30;80.69;101583.63;5077178;28;20189;-80
2021/04/01 09:00:09;;;;;;;34.58;17.05;;;;;;;7.36;80.69;101585.81;5093214;28;20031;-79
2021/04/01 09:02:36;;;;;;;37.30;14.73;;;;;;;7.35;80.72;101594.75;5092866;28;20039;-79
2021/04/01 09:05:05;;;;;;;31.70;15.13;;;;;;;7.28;80.94;101596.19;5093695;28;20028;-79
2021/04/01 09:07:37;;;;;;;36.05;14.52;;;;;;;7.24;81.57;101595.59;5091558;28;20032;-80
2021/04/01 09:10:14;;;;;;;31.67;13.02;;;;;;;7.27;81.50;101592.69;5092570;28;20081;-80
2021/04/01 09:15:32;;;;;;;21.13;11.05;;;;;;;7.15;81.56;101605.13;5092734;28;20074;-79
2021/04/01 09:17:58;;;;;;;31.85;12.75;;;;;;;7.31;80.63;101603.94;5091314;28;20040;-79
2021/04/01 09:20:25;;;;;;;23.07;9.40;;;;;;;7.32;80.77;101611.78;5091470;28;20122;-79
2021/04/01 09:22:58;;;;;;;19.25;10.05;;;;;;;7.19;80.84;101617.22;5091189;28;20197;-80
2021/04/01 09:25:38;;;;;;;21.10;10.88;;;;;;;7.30;80.85;101623.47;5074132;28;20070;-80
2021/04/01 09:28:06;;;;;;;25.40;10.43;;;;;;;7.28;81.11;101630.72;5091759;28;20048;-80
2021/04/01 09:30:32;;;;;;;22.60;11.20;;;;;;;7.36;80.84;101628.31;5092081;28;20062;-82
2021/04/01 09:33:05;;;;;;;21.10;9.70;;;;;;;7.11;81.98;101640.84;5091873;28;20039;-80
2021/04/01 09:35:32;;;;;;;17.13;8.35;;;;;;;6.90;82.09;101637.19;5074225;28;20043;-81
2021/04/01 09:38:03;;;;;;;21.13;8.93;;;;;;;6.84;82.83;101649.13;5090543;28;20472;-80
2021/04/01 09:40:36;;;;;;;22.40;7.43;;;;;;;6.73;82.42;101652.56;5074034;28;20039;-81
2021/04/01 09:43:15;;;;;;;15.00;6.55;;;;;;;6.52;82.59;101657.69;5091840;28;20058;-78
2021/04/01 09:45:41;;;;;;;16.75;7.03;;;;;;;6.71;82.74;101651.84;5090758;28;20127;-80
2021/04/01 09:48:08;;;;;;;18.90;7.72;;;;;;;6.62;82.74;101657.84;5090441;28;20131;-79
2021/04/01 09:50:36;;;;;;;14.48;5.78;;;;;;;6.78;82.20;101654.88;5091667;28;20043;-80
2021/04/01 09:53:13;;;;;;;11.80;5.30;;;;;;;6.63;82.17;101667.50;5091558;28;20084;-79
2021/04/01 09:55:43;;;;;;;15.55;6.28;;;;;;;6.63;80.92;101672.81;5091507;28;20036;-79
2021/04/01 09:58:27;;;;;;;16.77;5.00;;;;;;;6.52;80.99;101670.09;5090209;28;20036;-79
2021/04/01 10:03:33;;;;;;;9.52;4.28;;;;;;;6.70;79.59;101673.22;5091441;28;20054;-78
2021/04/01 10:05:58;;;;;;;10.90;4.50;;;;;;;6.75;79.18;101666.59;5091316;28;20411;-79
2021/04/01 10:08:26;;;;;;;4.63;3.30;;;;;;;6.89;77.85;101665.53;5089985;28;20036;-79
2021/04/01 10:10:57;;;;;;;7.03;3.20;;;;;;;6.98;76.87;101674.63;5091362;28;20125;-78
2021/04/01 10:13:28;;;;;;;5.10;3.00;;;;;;;6.91;76.58;101676.91;5091408;28;20040;-78
2021/04/01 10:15:57;;;;;;;5.60;2.90;;;;;;;7.18;76.43;101678.41;5090333;28;20040;-79
2021/04/01 10:18:25;;;;;;;11.05;4.07;;;;;;;7.18;76.53;101671.28;5091168;28;20039;-79
2021/04/01 10:21:02;;;;;;;7.07;2.88;;;;;;;7.49;75.55;101674.25;5090409;28;20044;-81
2021/04/01 10:23:28;;;;;;;5.95;3.40;;;;;;;7.57;74.61;101685.09;5091459;28;20040;-80
2021/04/01 10:26:07;;;;;;;8.40;2.80;;;;;;;7.43;74.72;101695.97;5091506;28;20028;-80
2021/04/01 10:31:12;;;;;;;6.95;2.40;;;;;;;7.36;74.97;101698.25;5090501;28;20036;-82
2021/04/01 10:33:48;;;;;;;5.43;2.65;;;;;;;7.83;74.85;101703.47;5091980;28;20407;-83
2021/04/01 10:36:16;;;;;;;4.80;1.88;;;;;;;7.72;72.96;101701.66;5074183;28;20127;-82
2021/04/01 10:38:43;;;;;;;5.13;2.25;;;;;;;7.86;72.33;101702.38;5090633;28;20126;-83
2021/04/01 10:41:17;;;;;;;5.05;2.25;;;;;;;8.03;71.98;101713.38;5090014;28;20078;-83
2021/04/01 10:43:44;;;;;;;7.20;2.05;;;;;;;7.95;72.14;101720.25;5091019;28;20035;-81
2021/04/01 10:46:16;;;;;;;6.32;2.10;;;;;;;7.78;71.82;101713.63;5091329;28;20102;-81
2021/04/01 10:48:46;;;;;;;5.10;2.00;;;;;;;7.69;72.17;101730.28;5090537;28;20338;-81
2021/04/01 10:51:12;;;;;;;6.43;2.58;;;;;;;7.55;71.51;101723.38;5091497;28;20028;-80
2021/04/01 10:53:41;;;;;;;6.35;3.45;;;;;;;7.75;72.08;101712.06;5091410;28;20032;-81
2021/04/01 10:56:10;;;;;;;5.00;1.98;;;;;;;7.69;71.08;101720.50;5090153;28;20044;-82
2021/04/01 10:58:47;;;;;;;5.07;2.30;;;;;;;7.82;70.66;101720.41;5089934;28;20044;-80
2021/04/01 11:01:14;;;;;;;4.20;1.70;;;;;;;7.91;69.77;101714.31;5091000;28;20518;-79
2021/04/01 11:03:46;;;;;;;4.20;1.75;;;;;;;7.78;69.76;101721.59;5089762;28;20119;-80
2021/04/01 11:06:13;;;;;;;3.80;2.10;;;;;;;7.70;70.33;101716.03;5089183;28;20032;-80
2021/04/01 11:08:41;;;;;;;3.70;1.60;;;;;;;7.40;70.94;101728.09;5089206;28;20032;-79
2021/04/01 11:11:08;;;;;;;3.45;1.63;;;;;;;7.40;71.04;101726.28;5091884;28;20036;-78
2021/04/01 11:13:41;;;;;;;4.70;1.92;;;;;;;7.41;71.20;101727.13;5094401;28;20043;-79
2021/04/01 11:16:09;;;;;;;5.40;1.33;;;;;;;7.42;71.36;101728.78;5076395;28;20059;-79
2021/04/01 11:18:38;;;;;;;4.78;1.58;;;;;;;7.42;70.90;101733.25;5093930;28;20035;-79
2021/04/01 11:21:06;;;;;;;12.00;1.77;;;;;;;7.19;70.61;101734.06;5093234;28;20372;-79
2021/04/01 11:23:34;;;;;;;5.13;1.50;;;;;;;7.21;71.52;101735.75;5094130;28;20036;-78
2021/04/01 11:26:01;;;;;;;3.05;1.10;;;;;;;7.12;71.62;101737.31;5094041;28;20036;-79
2021/04/01 11:28:41;;;;;;;2.53;1.45;;;;;;;7.08;71.86;101736.69;5092790;28;20078;-79
2021/04/01 11:31:09;;;;;;;4.70;1.90;;;;;;;7.03;72.66;101746.81;5076325;28;20464;-79
2021/04/01 11:33:37;;;;;;;5.93;1.33;;;;;;;6.89;72.40;101747.00;5094036;28;20036;-79
2021/04/01 11:36:14;;;;;;;2.08;1.05;;;;;;;6.64;72.90;101753.25;5092824;28;20055;-78
2021/04/01 11:39:02;;;;;;;5.47;1.50;;;;;;;6.62;72.71;101756.00;5093591;28;20089;-79
2021/04/01 11:41:28;;;;;;;5.45;1.55;;;;;;;6.64;72.08;101754.09;5092889;28;20472;-79
2021/04/01 11:43:58;;;;;;;4.20;0.93;;;;;;;6.75;71.74;101756.81;5092581;28;20036;-81
2021/04/01 11:46:28;;;;;;;2.97;1.33;;;;;;;6.78;71.74;101765.53;5075227;28;20039;-81
2021/04/01 11:48:55;;;;;;;2.63;0.70;;;;;;;6.90;70.29;101777.88;5093359;28;20043;-81
2021/04/01 11:51:31;;;;;;;7.85;1.80;;;;;;;7.02;69.68;101769.00;5093499;28;20046;-80
2021/04/01 11:53:57;;;;;;;2.58;1.02;;;;;;;6.88;70.54;101772.72;5093640;28;20625;-79
2021/04/01 11:56:34;;;;;;;3.25;1.65;;;;;;;6.88;70.55;101782.44;5092474;28;20043;-79
2021/04/01 11:59:18;;;;;;;4.28;2.05;;;;;;;6.51;72.50;101772.72;5093198;28;20035;-80
2021/04/01 12:02:09;;;;;;;4.90;1.20;;;;;;;6.61;71.95;101782.69;5092774;28;20459;-79
2021/04/01 12:04:37;;;;;;;6.82;1.02;;;;;;;6.50;71.34;101780.78;5092555;28;20036;-79
2021/04/01 12:07:05;;;;;;;6.35;1.25;;;;;;;6.55;71.70;101781.31;5093286;28;20074;-79
2021/04/01 12:09:30;;;;;;;5.10;1.75;;;;;;;6.74;70.85;101784.34;5092104;28;20450;-79
2021/04/01 12:11:56;;;;;;;3.03;1.17;;;;;;;6.69;71.16;101775.84;5075359;28;20063;-81
2021/04/01 12:14:32;;;;;;;4.37;1.00;;;;;;;6.54;71.86;101790.22;5092255;28;20139;-79
2021/04/01 12:17:05;;;;;;;1.65;1.35;;;;;;;6.69;71.71;101778.50;5092484;28;20545;-79
2021/04/01 12:19:32;;;;;;;7.05;2.08;;;;;;;6.93;70.42;101786.47;5092837;28;20042;-79
2021/04/01 12:22:09;;;;;;;5.47;1.48;;;;;;;7.07;70.02;101793.44;5092074;28;20415;-79
2021/04/01 12:24:36;;;;;;;4.82;1.60;;;;;;;6.90;70.20;101792.00;5093012;28;20061;-81
2021/04/01 12:27:01;;;;;;;4.53;1.77;;;;;;;7.02;70.08;101800.03;5091680;28;20036;-80
2021/04/01 12:29:27;;;;;;;6.03;2.00;;;;;;;6.89;70.36;101782.34;5091500;28;20044;-80
2021/04/01 12:31:55;;;;;;;5.43;2.05;;;;;;;7.00;70.56;101800.16;5092739;28;20080;-80
2021/04/01 12:34:29;;;;;;;7.10;2.85;;;;;;;7.00;70.83;101797.50;5091716;28;20100;-80
2021/04/01 12:36:56;;;;;;;5.68;1.80;;;;;;;6.87;71.15;101804.66;5091216;28;20107;-82
2021/04/01 12:39:32;;;;;;;6.63;2.15;;;;;;;6.87;71.51;101796.69;5092482;28;20046;-81
2021/04/01 12:41:58;;;;;;;2.45;1.48;;;;;;;6.99;71.18;101806.41;5092190;28;20035;-83
2021/04/01 12:44:38;;;;;;;5.05;2.10;;;;;;;6.88;70.95;101809.00;5092147;28;20369;-83
2021/04/01 12:47:04;;;;;;;6.68;2.28;;;;;;;6.75;71.90;101817.88;5093062;28;20445;-83
2021/04/01 12:49:33;;;;;;;6.93;2.03;;;;;;;6.70;71.55;101824.47;5092796;28;20051;-82
2021/04/01 12:52:02;;;;;;;4.20;1.85;;;;;;;6.58;71.86;101815.59;5092001;28;20063;-82
2021/04/01 12:54:32;;;;;;;33.25;2.70;;;;;;;6.71;71.12;101823.50;5092072;28;20028;-82